createdAt,value
2018-12-01T00:03:17.545Z,79.24
2018-12-01T00:08:49.782Z,79.45
2018-12-01T00:14:15.117Z,79.26
2018-12-01T00:19:40.939Z,79.33
2018-12-01T00:25:06.678Z,78.63
2018-12-01T00:27:36.979Z,78.76
2018-12-01T00:30:10.701Z,79.05
2018-12-01T00:35:35.921Z,78.25
2018-12-01T00:41:01.759Z,78.53
2018-12-01T00:46:26.758Z,78.39
2018-12-01T00:49:16.254Z,78.31
2018-12-01T00:51:46.478Z,78.64
2018-12-01T00:56:58.769Z,78.44
2018-12-01T00:59:29.004Z,78.65
2018-12-01T01:01:59.236Z,78.37
2018-12-01T01:07:17.450Z,78.69
2018-12-01T01:15:11.605Z,79.09
2018-12-01T01:20:36.985Z,78.63
2018-12-01T01:28:31.197Z,78.71
2018-12-01T01:31:01.455Z,78.09
2018-12-01T01:33:31.882Z,78.41
2018-12-01T01:38:57.702Z,78.12
2018-12-01T01:44:23.059Z,78.14
2018-12-01T01:49:48.490Z,77.94
2018-12-01T01:55:13.969Z,78.08
2018-12-01T02:00:38.904Z,78.45
2018-12-01T02:06:10.357Z,78.11
2018-12-01T02:11:29.142Z,78.51
2018-12-01T02:16:54.734Z,78.63
2018-12-01T02:22:20.204Z,78.41
2018-12-01T02:27:46.219Z,78.35
2018-12-01T02:33:15.181Z,78.16
2018-12-01T02:38:40.264Z,77.93
2018-12-01T02:44:43.299Z,77.83
2018-12-01T02:49:55.457Z,77.82
2018-12-01T02:52:25.653Z,77.82
2018-12-01T02:54:55.929Z,77.68
2018-12-01T02:57:26.141Z,77.76
2018-12-01T03:02:52.077Z,77.91
2018-12-01T03:05:41.254Z,77.63
2018-12-01T03:08:11.486Z,77.43
2018-12-01T03:10:41.725Z,77.44
2018-12-01T03:15:59.557Z,77.38
2018-12-01T03:21:25.053Z,77.06
2018-12-01T03:26:50.965Z,76.99
2018-12-01T03:32:16.305Z,77.32
2018-12-01T03:38:01.016Z,77.85
2018-12-01T03:43:30.843Z,77.19
2018-12-01T03:48:56.039Z,77.16
2018-12-01T03:54:21.897Z,77.28
2018-12-01T03:59:47.715Z,77.50
2018-12-01T04:05:19.056Z,77.33
2018-12-01T04:07:49.295Z,77.77
2018-12-01T04:10:19.518Z,77.39
2018-12-01T04:15:45.482Z,77.13
2018-12-01T04:21:10.797Z,77.27
2018-12-01T04:23:41.048Z,77.62
2018-12-01T04:26:11.267Z,77.51
2018-12-01T04:31:36.425Z,76.99
2018-12-01T04:37:02.403Z,77.02
2018-12-01T04:42:28.289Z,77.16
2018-12-01T04:47:53.620Z,76.62
2018-12-01T04:50:23.871Z,76.56
2018-12-01T04:52:54.088Z,76.47
2018-12-01T04:58:19.552Z,76.75
2018-12-01T05:03:44.771Z,76.64
2018-12-01T05:09:29.294Z,77.20
2018-12-01T05:11:59.530Z,77.31
2018-12-01T05:14:29.757Z,77.31
2018-12-01T05:17:00.016Z,77.57
2018-12-01T05:19:30.226Z,77.63
2018-12-01T05:24:56.085Z,76.79
2018-12-01T05:30:21.397Z,78.04
2018-12-01T05:32:51.675Z,77.85
2018-12-01T05:35:25.648Z,78.20
2018-12-01T05:40:50.610Z,78.28
2018-12-01T05:46:16.482Z,77.99
2018-12-01T05:48:46.722Z,78.06
2018-12-01T05:51:16.937Z,77.96
2018-12-01T05:53:53.631Z,77.66
2018-12-01T05:56:23.856Z,77.97
2018-12-01T06:01:37.057Z,77.88
2018-12-01T06:04:07.464Z,77.99
2018-12-01T06:06:37.683Z,78.20
2018-12-01T06:09:26.894Z,78.03
2018-12-01T06:12:16.042Z,77.70
2018-12-01T06:14:46.284Z,77.95
2018-12-01T06:17:16.501Z,78.28
2018-12-01T06:22:42.020Z,78.28
2018-12-01T06:25:19.569Z,78.00
2018-12-01T06:28:08.775Z,77.87
2018-12-01T06:33:34.334Z,78.40
2018-12-01T06:39:00.079Z,78.03
2018-12-01T06:44:25.888Z,78.14
2018-12-01T06:49:51.634Z,78.26
2018-12-01T06:55:17.664Z,77.76
2018-12-01T06:57:48.404Z,77.80
2018-12-01T07:00:27.618Z,77.88
2018-12-01T07:03:09.906Z,78.02
2018-12-01T07:05:40.141Z,77.69
2018-12-01T07:10:52.918Z,77.38
2018-12-01T07:16:18.549Z,78.46
2018-12-01T07:19:26.959Z,78.09
2018-12-01T07:21:57.181Z,78.25
2018-12-01T07:27:09.998Z,78.32
2018-12-01T07:32:35.046Z,78.16
2018-12-01T07:38:00.794Z,78.67
2018-12-01T07:43:26.148Z,78.84
2018-12-01T07:48:51.155Z,79.12
2018-12-01T07:54:16.149Z,79.10
2018-12-01T07:56:46.441Z,79.31
2018-12-01T07:59:16.683Z,79.47
2018-12-01T08:01:46.958Z,79.80
2018-12-01T08:04:17.191Z,79.56
2018-12-01T08:06:47.488Z,79.30
2018-12-01T08:09:17.695Z,79.02
2018-12-01T08:17:27.695Z,79.07
2018-12-01T08:19:57.954Z,78.82
2018-12-01T08:22:28.178Z,79.38
2018-12-01T08:24:58.427Z,79.54
2018-12-01T08:27:28.655Z,79.60
2018-12-01T08:29:58.868Z,79.84
2018-12-01T08:35:17.482Z,79.82
2018-12-01T08:37:47.743Z,78.95
2018-12-01T08:40:36.969Z,78.63
2018-12-01T08:46:02.730Z,78.61
2018-12-01T08:48:33.001Z,78.16
2018-12-01T08:51:03.245Z,78.46
2018-12-01T08:53:33.493Z,78.22
2018-12-01T08:56:03.775Z,77.95
2018-12-01T08:58:34.018Z,77.88
2018-12-01T09:01:04.241Z,77.79
2018-12-01T09:03:34.506Z,78.11
2018-12-01T09:06:04.747Z,77.87
2018-12-01T09:11:30.649Z,77.82
2018-12-01T09:16:56.485Z,78.32
2018-12-01T09:22:21.950Z,78.38
2018-12-01T09:24:52.190Z,78.00
2018-12-01T09:27:22.754Z,78.34
2018-12-01T09:29:52.655Z,78.42
2018-12-01T09:32:22.859Z,78.86
2018-12-01T09:34:59.211Z,78.58
2018-12-01T09:37:29.466Z,78.89
2018-12-01T09:39:59.728Z,78.89
2018-12-01T09:42:30.027Z,78.90
2018-12-01T09:45:00.275Z,78.62
2018-12-01T09:47:30.508Z,78.98
2018-12-01T09:50:00.810Z,78.98
2018-12-01T09:53:08.938Z,78.85
2018-12-01T09:55:39.229Z,78.66
2018-12-01T09:58:09.475Z,79.11
2018-12-01T10:00:39.790Z,78.81
2018-12-01T10:03:10.388Z,79.12
2018-12-01T10:05:40.642Z,78.82
2018-12-01T10:08:10.863Z,78.75
2018-12-01T10:10:41.118Z,78.59
2018-12-01T10:13:11.340Z,78.66
2018-12-01T10:16:00.245Z,79.11
2018-12-01T10:18:30.493Z,78.67
2018-12-01T10:21:00.759Z,79.28
2018-12-01T10:23:42.298Z,79.33
2018-12-01T10:26:24.391Z,79.47
2018-12-01T10:29:06.095Z,79.82
2018-12-01T10:31:36.327Z,79.72
2018-12-01T10:34:25.816Z,78.81
2018-12-01T10:37:01.962Z,79.30
2018-12-01T10:39:32.175Z,79.11
2018-12-01T10:42:03.706Z,79.43
2018-12-01T10:44:32.646Z,78.98
2018-12-01T10:49:45.898Z,79.20
2018-12-01T10:52:18.418Z,79.23
2018-12-01T10:55:26.537Z,78.59
2018-12-01T10:58:08.669Z,78.93
2018-12-01T11:00:57.556Z,78.98
2018-12-01T11:03:48.075Z,79.17
2018-12-01T11:06:19.584Z,78.78
2018-12-01T11:08:50.251Z,79.11
2018-12-01T11:11:20.954Z,78.68
2018-12-01T11:16:46.773Z,78.90
2018-12-01T11:19:17.015Z,78.82
2018-12-01T11:21:47.311Z,78.73
2018-12-01T11:27:12.236Z,79.07
2018-12-01T11:29:42.485Z,78.57
2018-12-01T11:32:12.714Z,78.91
2018-12-01T11:34:42.957Z,78.85
2018-12-01T11:37:13.184Z,78.77
2018-12-01T11:39:49.778Z,78.90
2018-12-01T11:42:19.998Z,78.22
2018-12-01T11:47:35.162Z,78.74
2018-12-01T11:50:07.176Z,78.67
2018-12-01T11:52:37.623Z,78.80
2018-12-01T11:55:10.680Z,78.66
2018-12-01T12:00:30.194Z,79.90
2018-12-01T12:03:19.332Z,80.16
2018-12-01T12:05:49.574Z,80.29
2018-12-01T12:08:39.417Z,79.94
2018-12-01T12:11:16.074Z,80.69
2018-12-01T12:13:46.301Z,80.93
2018-12-01T12:16:16.548Z,80.90
2018-12-01T12:18:46.765Z,80.99
2018-12-01T12:21:17.416Z,80.85
2018-12-01T12:23:47.642Z,80.38
2018-12-01T12:26:36.533Z,80.26
2018-12-01T12:29:06.768Z,80.65
2018-12-01T12:31:36.998Z,80.42
2018-12-01T12:34:07.402Z,80.93
2018-12-01T12:39:20.322Z,80.96
2018-12-01T12:41:56.582Z,81.29
2018-12-01T12:44:26.859Z,81.33
2018-12-01T12:46:57.202Z,81.37
2018-12-01T12:49:27.435Z,80.81
2018-12-01T12:52:09.203Z,80.68
2018-12-01T12:54:39.427Z,80.86
2018-12-01T12:57:09.702Z,80.73
2018-12-01T13:02:25.729Z,80.69
2018-12-01T13:04:55.947Z,80.88
2018-12-01T13:07:26.223Z,80.41
2018-12-01T13:09:56.434Z,79.65
2018-12-01T13:12:26.686Z,80.02
2018-12-01T13:14:56.901Z,79.87
2018-12-01T13:20:42.078Z,79.95
2018-12-01T13:25:54.498Z,78.92
2018-12-01T13:31:22.805Z,79.44
2018-12-01T13:36:48.442Z,80.17
2018-12-01T13:42:14.301Z,80.53
2018-12-01T13:44:50.431Z,80.55
2018-12-01T13:47:20.657Z,80.12
2018-12-01T13:52:44.641Z,79.74
2018-12-01T13:57:56.886Z,79.89
2018-12-01T14:00:28.711Z,80.03
2018-12-01T14:02:58.951Z,79.91
2018-12-01T14:05:29.201Z,80.46
2018-12-01T14:07:59.750Z,80.67
2018-12-01T14:10:31.633Z,80.02
2018-12-01T14:13:06.794Z,79.69
2018-12-01T14:18:12.502Z,79.65
2018-12-01T14:20:41.661Z,79.09
2018-12-01T14:23:10.698Z,79.10
2018-12-01T14:25:40.421Z,78.67
2018-12-01T14:28:11.715Z,78.32
2018-12-01T14:30:41.209Z,78.77
2018-12-01T14:33:11.362Z,78.04
2018-12-01T14:35:40.550Z,79.23
2018-12-01T14:38:14.073Z,78.06
2018-12-01T14:40:44.260Z,77.89
2018-12-01T14:43:13.364Z,78.23
2018-12-01T14:45:43.783Z,79.11
2018-12-01T14:48:12.869Z,77.80
2018-12-01T14:50:41.981Z,78.43
2018-12-01T14:53:12.569Z,79.14
2018-12-01T14:55:41.702Z,79.46
2018-12-01T14:58:10.929Z,78.49
2018-12-01T15:00:40.108Z,78.53
2018-12-01T15:03:09.489Z,78.58
2018-12-01T15:05:39.633Z,78.47
2018-12-01T15:08:09.079Z,77.55
2018-12-01T15:10:38.315Z,78.30
2018-12-01T15:13:07.730Z,78.68
2018-12-01T15:15:37.234Z,78.75
2018-12-01T15:18:06.627Z,78.50
2018-12-01T15:20:35.718Z,77.83
2018-12-01T15:23:05.149Z,78.68
2018-12-01T15:25:34.251Z,77.87
2018-12-01T15:28:03.426Z,77.99
2018-12-01T15:30:32.766Z,78.06
2018-12-01T15:33:18.823Z,78.06
2018-12-01T15:35:48.618Z,77.80
2018-12-01T15:38:18.445Z,78.38
2018-12-01T15:40:50.533Z,77.42
2018-12-01T15:43:20.067Z,77.51
2018-12-01T15:45:49.197Z,78.80
2018-12-01T15:48:18.592Z,78.19
2018-12-01T15:50:47.697Z,77.39
2018-12-01T15:53:16.990Z,77.96
2018-12-01T15:55:46.112Z,77.82
2018-12-01T15:58:15.177Z,77.54
2018-12-01T16:00:44.599Z,77.76
2018-12-01T16:03:14.806Z,78.01
2018-12-01T16:05:43.893Z,77.74
2018-12-01T16:08:13.111Z,78.16
2018-12-01T16:10:42.338Z,78.82
2018-12-01T16:13:16.928Z,77.96
2018-12-01T16:16:03.687Z,78.57
2018-12-01T16:18:33.031Z,78.19
2018-12-01T16:21:02.142Z,78.30
2018-12-01T16:23:31.317Z,78.30
2018-12-01T16:26:00.382Z,77.73
2018-12-01T16:28:29.518Z,78.53
2018-12-01T16:30:59.024Z,79.42
2018-12-01T16:33:28.058Z,79.63
2018-12-01T16:35:58.004Z,79.45
2018-12-01T16:38:30.295Z,78.92
2018-12-01T16:41:01.058Z,78.72
2018-12-01T16:43:33.232Z,78.93
2018-12-01T16:46:02.335Z,79.29
2018-12-01T16:48:31.527Z,78.06
2018-12-01T16:51:00.734Z,78.09
2018-12-01T16:53:29.894Z,78.38
2018-12-01T16:55:59.806Z,77.40
2018-12-01T16:58:29.797Z,78.04
2018-12-01T17:00:59.682Z,77.87
2018-12-01T17:03:29.376Z,78.75
2018-12-01T17:06:00.569Z,78.87
2018-12-01T17:08:29.648Z,79.58
2018-12-01T17:10:58.786Z,78.97
2018-12-01T17:13:28.181Z,78.08
2018-12-01T17:15:57.240Z,78.03
2018-12-01T17:18:26.369Z,77.99
2018-12-01T17:20:55.485Z,78.44
2018-12-01T17:23:24.757Z,77.60
2018-12-01T17:25:53.966Z,78.31
2018-12-01T17:28:23.358Z,78.00
2018-12-01T17:30:52.640Z,79.05
2018-12-01T17:33:21.753Z,77.92
2018-12-01T17:35:50.864Z,77.05
2018-12-01T17:38:22.392Z,77.60
2018-12-01T17:45:10.176Z,78.61
2018-12-01T17:47:39.381Z,79.03
2018-12-01T17:50:17.248Z,78.96
2018-12-01T17:52:51.902Z,78.29
2018-12-01T17:55:21.618Z,78.01
2018-12-01T17:57:51.638Z,79.05
2018-12-01T18:00:22.273Z,78.63
2018-12-01T18:02:52.834Z,78.93
2018-12-01T18:05:27.246Z,78.33
2018-12-01T18:07:56.373Z,77.82
2018-12-01T18:10:25.645Z,78.05
2018-12-01T18:12:55.138Z,78.33
2018-12-01T18:15:24.294Z,78.89
2018-12-01T18:17:53.379Z,78.90
2018-12-01T18:20:23.914Z,79.26
2018-12-01T18:22:59.487Z,78.56
2018-12-01T18:25:30.183Z,78.71
2018-12-01T18:27:59.674Z,79.26
2018-12-01T18:30:32.007Z,78.76
2018-12-01T18:33:03.317Z,78.78
2018-12-01T18:35:32.390Z,78.99
2018-12-01T18:38:01.510Z,79.46
2018-12-01T18:40:31.138Z,79.41
2018-12-01T18:43:00.612Z,79.29
2018-12-01T18:45:29.714Z,78.83
2018-12-01T18:47:58.933Z,79.64
2018-12-01T18:50:28.413Z,79.38
2018-12-01T18:52:58.755Z,79.48
2018-12-01T18:55:29.625Z,79.20
2018-12-01T18:57:59.559Z,79.83
2018-12-01T19:00:31.674Z,79.80
2018-12-01T19:03:00.767Z,79.45
2018-12-01T19:05:29.869Z,78.57
2018-12-01T19:07:58.914Z,78.30
2018-12-01T19:10:28.034Z,79.57
2018-12-01T19:12:57.309Z,78.99
2018-12-01T19:15:26.477Z,79.02
2018-12-01T19:17:55.537Z,79.21
2018-12-01T19:20:24.694Z,80.31
2018-12-01T19:22:54.232Z,79.78
2018-12-01T19:25:23.959Z,79.71
2018-12-01T19:27:54.406Z,79.64
2018-12-01T19:30:23.674Z,78.80
2018-12-01T19:32:57.699Z,78.79
2018-12-01T19:35:26.726Z,79.09
2018-12-01T19:37:56.197Z,78.83
2018-12-01T19:40:29.522Z,79.08
2018-12-01T19:42:59.511Z,77.98
2018-12-01T19:45:28.593Z,79.09
2018-12-01T19:47:57.678Z,79.18
2018-12-01T19:50:29.239Z,79.10
2018-12-01T19:52:58.292Z,80.16
2018-12-01T19:55:28.338Z,79.65
2018-12-01T19:57:57.373Z,79.11
2018-12-01T20:00:29.878Z,80.32
2018-12-01T20:03:00.765Z,79.68
2018-12-01T20:05:30.508Z,79.37
2018-12-01T20:07:59.561Z,79.18
2018-12-01T20:10:37.867Z,79.87
2018-12-01T20:13:15.257Z,79.33
2018-12-01T20:15:46.263Z,80.16
2018-12-01T20:18:19.709Z,80.06
2018-12-01T20:20:48.843Z,78.97
2018-12-01T20:23:18.100Z,79.09
2018-12-01T20:25:49.867Z,80.01
2018-12-01T20:28:18.961Z,79.82
2018-12-01T20:30:49.507Z,80.14
2018-12-01T20:33:19.180Z,79.89
2018-12-01T20:35:52.652Z,79.24
2018-12-01T20:38:27.629Z,79.07
2018-12-01T20:40:57.652Z,79.37
2018-12-01T20:43:26.324Z,79.07
2018-12-01T20:45:55.531Z,80.46
2018-12-01T20:48:24.656Z,79.61
2018-12-01T20:50:54.736Z,80.50
2018-12-01T20:53:24.941Z,80.25
2018-12-01T20:55:57.075Z,80.54
2018-12-01T20:58:29.463Z,79.96
2018-12-01T21:00:58.561Z,79.67
2018-12-01T21:03:27.685Z,79.33
2018-12-01T21:05:56.777Z,79.72
2018-12-01T21:08:27.974Z,79.83
2018-12-01T21:10:58.480Z,79.77
2018-12-01T21:13:27.688Z,80.04
2018-12-01T21:15:56.751Z,80.71
2018-12-01T21:18:25.817Z,79.74
2018-12-01T21:20:54.981Z,79.54
2018-12-01T21:23:24.037Z,80.23
2018-12-01T21:25:53.238Z,80.16
2018-12-01T21:28:22.825Z,80.48
2018-12-01T21:30:52.444Z,80.33
2018-12-01T21:33:26.379Z,81.01
2018-12-01T21:35:55.458Z,80.80
2018-12-01T21:38:24.722Z,79.80
2018-12-01T21:40:54.014Z,79.80
2018-12-01T21:43:23.162Z,79.85
2018-12-01T21:45:52.350Z,80.51
2018-12-01T21:48:21.841Z,80.04
2018-12-01T21:50:51.089Z,79.98
2018-12-01T21:53:23.048Z,79.59
2018-12-01T21:55:52.289Z,80.49
2018-12-01T21:58:21.613Z,79.89
2018-12-01T22:00:53.633Z,80.20
2018-12-01T22:03:22.774Z,79.60
2018-12-01T22:05:56.581Z,80.85
2018-12-01T22:08:25.632Z,79.87
2018-12-01T22:10:56.201Z,79.67
2018-12-01T22:13:26.082Z,80.41
2018-12-01T22:15:56.118Z,80.33
2018-12-01T22:18:25.958Z,79.23
2018-12-01T22:20:55.141Z,78.90
2018-12-01T22:23:24.366Z,79.60
2018-12-01T22:25:53.721Z,79.92
2018-12-01T22:28:22.949Z,79.85
2018-12-01T22:30:53.062Z,79.77
2018-12-01T22:33:24.809Z,79.56
2018-12-01T22:35:54.020Z,79.23
2018-12-01T22:38:24.122Z,79.27
2018-12-01T22:40:53.746Z,80.19
2018-12-01T22:43:22.921Z,78.68
2018-12-01T22:45:53.270Z,79.05
2018-12-01T22:48:24.291Z,79.11
2018-12-01T22:50:53.865Z,79.75
2018-12-01T22:53:23.069Z,79.02
2018-12-01T22:55:52.310Z,79.22
2018-12-01T22:58:22.205Z,79.45
2018-12-01T23:00:56.086Z,79.44
2018-12-01T23:03:26.819Z,79.66
2018-12-01T23:05:56.102Z,78.85
2018-12-01T23:08:26.419Z,79.16
2018-12-01T23:10:55.966Z,79.24
2018-12-01T23:13:25.002Z,80.04
2018-12-01T23:15:54.166Z,79.42
2018-12-01T23:18:24.965Z,79.85
2018-12-01T23:20:54.041Z,79.48
2018-12-01T23:23:23.225Z,78.76
2018-12-01T23:25:52.515Z,78.72
2018-12-01T23:28:21.579Z,79.45
2018-12-01T23:30:54.210Z,79.30
2018-12-01T23:33:24.813Z,78.38
2018-12-01T23:35:54.211Z,78.11
2018-12-01T23:38:23.338Z,78.65
2018-12-01T23:40:52.384Z,78.44
2018-12-01T23:43:21.778Z,78.06
2018-12-01T23:45:50.918Z,78.87
2018-12-01T23:48:19.936Z,78.89
2018-12-01T23:50:53.369Z,78.78
2018-12-01T23:53:22.992Z,78.59
2018-12-01T23:55:52.082Z,78.51
2018-12-01T23:58:21.482Z,78.63
